createdAt,value
2022-12-18T00:01:38.104Z,101416.63
2022-12-18T00:04:21.047Z,101417.50
2022-12-18T00:06:51.291Z,101408.19
2022-12-18T00:09:21.535Z,101402.16
2022-12-18T00:11:55.088Z,101414.78
2022-12-18T00:14:24.165Z,101416.63
2022-12-18T00:16:53.729Z,101409.66
2022-12-18T00:19:29.361Z,101426.84
2022-12-18T00:21:59.470Z,101419.19
2022-12-18T00:24:29.159Z,101419.19
2022-12-18T00:26:59.196Z,101416.75
2022-12-18T00:29:29.255Z,101414.06
2022-12-18T00:31:58.722Z,101412.41
2022-12-18T00:34:30.594Z,101418.59
2022-12-18T00:37:00.679Z,101411.50
2022-12-18T00:39:29.553Z,101408.19
2022-12-18T00:42:16.240Z,101411.50
2022-12-18T00:44:46.103Z,101396.88
2022-12-18T00:47:17.640Z,101385.00
2022-12-18T00:49:49.484Z,101388.28
2022-12-18T00:52:19.732Z,101400.34
2022-12-18T00:54:49.407Z,101398.53
2022-12-18T00:57:18.779Z,101411.31
2022-12-18T00:59:48.392Z,101410.59
2022-12-18T01:02:17.704Z,101402.91
2022-12-18T01:04:52.939Z,101411.50
2022-12-18T01:07:22.600Z,101410.59
2022-12-18T01:09:51.240Z,101411.50
2022-12-18T01:12:22.307Z,101414.06
2022-12-18T01:14:54.046Z,101424.13
2022-12-18T01:17:23.975Z,101416.44
2022-12-18T01:19:54.012Z,101404.53
2022-12-18T01:22:23.486Z,101407.88
2022-12-18T01:24:53.832Z,101406.06
2022-12-18T01:27:25.940Z,101411.91
2022-12-18T01:29:55.760Z,101405.00
2022-12-18T01:32:25.598Z,101414.34
2022-12-18T01:34:56.384Z,101409.06
2022-12-18T01:37:29.248Z,101407.22
2022-12-18T01:39:57.872Z,101402.88
2022-12-18T01:42:27.945Z,101399.25
2022-12-18T01:45:04.570Z,101401.78
2022-12-18T01:47:42.457Z,101403.63
2022-12-18T01:50:18.082Z,101391.72
2022-12-18T01:52:51.000Z,101388.28
2022-12-18T01:55:22.944Z,101390.97
2022-12-18T01:57:55.121Z,101395.19
2022-12-18T02:00:26.829Z,101397.91
2022-12-18T02:02:58.736Z,101398.81
2022-12-18T02:05:43.134Z,101400.47
2022-12-18T02:08:18.608Z,101407.22
2022-12-18T02:10:57.452Z,101409.06
2022-12-18T02:13:34.969Z,101405.72
2022-12-18T02:16:12.353Z,101407.56
2022-12-18T02:18:46.623Z,101399.13
2022-12-18T02:21:37.926Z,101411.03
2022-12-18T02:24:21.172Z,101406.81
2022-12-18T02:26:59.078Z,101409.22
2022-12-18T02:29:34.310Z,101400.03
2022-12-18T02:32:08.841Z,101398.38
2022-12-18T02:34:42.812Z,101390.72
2022-12-18T02:37:20.962Z,101390.72
2022-12-18T02:39:56.939Z,101386.50
2022-12-18T02:42:31.302Z,101386.50
2022-12-18T02:45:01.626Z,101385.59
2022-12-18T02:47:33.929Z,101390.72
2022-12-18T02:50:16.476Z,101395.06
2022-12-18T02:52:58.902Z,101396.72
2022-12-18T02:55:42.368Z,101387.38
2022-12-18T02:58:23.613Z,101399.44
2022-12-18T03:01:03.205Z,101386.63
2022-12-18T03:03:42.369Z,101378.06
2022-12-18T03:06:21.140Z,101387.38
2022-12-18T03:08:57.182Z,101383.16
2022-12-18T03:11:49.331Z,101386.63
2022-12-18T03:14:30.326Z,101383.16
2022-12-18T03:17:05.452Z,101386.50
2022-12-18T03:19:36.834Z,101372.94
2022-12-18T03:22:11.051Z,101370.22
2022-12-18T03:24:50.785Z,101369.31
2022-12-18T03:27:24.670Z,101367.69
2022-12-18T03:30:11.236Z,101364.19
2022-12-18T03:32:54.574Z,101365.13
2022-12-18T03:35:33.491Z,101365.13
2022-12-18T03:38:05.706Z,101366.00
2022-12-18T03:40:46.559Z,101367.69
2022-12-18T03:43:26.674Z,101366.91
2022-12-18T03:46:07.078Z,101370.53
2022-12-18T03:48:45.165Z,101363.00
2022-12-18T03:51:26.795Z,101367.38
2022-12-18T03:54:00.530Z,101364.22
2022-12-18T03:56:40.430Z,101360.91
2022-12-18T03:59:16.575Z,101354.28
2022-12-18T04:01:56.198Z,101353.69
2022-12-18T04:04:28.480Z,101352.19
2022-12-18T04:07:00.722Z,101347.97
2022-12-18T04:09:35.402Z,101354.34
2022-12-18T04:12:05.739Z,101352.81
2022-12-18T04:14:36.780Z,101347.09
2022-12-18T04:17:10.335Z,101346.34
2022-12-18T04:19:40.057Z,101338.97
2022-12-18T04:22:16.550Z,101343.50
2022-12-18T04:24:53.057Z,101340.03
2022-12-18T04:27:32.216Z,101339.28
2022-12-18T04:30:02.860Z,101348.03
2022-12-18T04:32:36.211Z,101349.81
2022-12-18T04:35:08.585Z,101346.53
2022-12-18T04:37:37.544Z,101343.19
2022-12-18T04:40:08.597Z,101342.47
2022-12-18T04:42:46.559Z,101339.13
2022-12-18T04:45:16.721Z,101332.34
2022-12-18T04:47:47.731Z,101334.19
2022-12-18T04:50:17.444Z,101332.50
2022-12-18T04:52:48.101Z,101329.94
2022-12-18T04:55:17.772Z,101336.13
2022-12-18T04:57:49.524Z,101332.50
2022-12-18T05:00:19.873Z,101328.44
2022-12-18T05:02:50.918Z,101325.13
2022-12-18T05:05:20.688Z,101321.84
2022-12-18T05:07:50.756Z,101313.38
2022-12-18T05:10:21.063Z,101319.56
2022-12-18T05:13:03.284Z,101316.25
2022-12-18T05:15:36.420Z,101314.75
2022-12-18T05:18:08.223Z,101316.69
2022-12-18T05:20:37.906Z,101311.75
2022-12-18T05:23:07.532Z,101319.44
2022-12-18T05:25:40.056Z,101323.94
2022-12-18T05:28:08.857Z,101319.72
2022-12-18T05:30:41.682Z,101313.81
2022-12-18T05:33:13.302Z,101312.19
2022-12-18T05:35:45.801Z,101310.38
2022-12-18T05:38:17.688Z,101313.81
2022-12-18T05:40:47.591Z,101318.22
2022-12-18T05:43:21.200Z,101314.88
2022-12-18T05:45:55.125Z,101320.91
2022-12-18T05:48:25.601Z,101321.84
2022-12-18T05:50:54.843Z,101332.38
2022-12-18T05:53:24.471Z,101330.72
2022-12-18T05:55:54.640Z,101336.00
2022-12-18T05:58:24.213Z,101342.94
2022-12-18T06:00:54.191Z,101346.56
2022-12-18T06:03:22.904Z,101357.09
2022-12-18T06:05:54.292Z,101358.00
2022-12-18T06:08:25.705Z,101364.03
2022-12-18T06:10:54.735Z,101351.38
2022-12-18T06:13:24.457Z,101359.22
2022-12-18T06:15:54.162Z,101362.53
2022-12-18T06:18:23.641Z,101380.63
2022-12-18T06:20:59.031Z,101381.53
2022-12-18T06:23:29.308Z,101384.09
2022-12-18T06:25:59.455Z,101386.66
2022-12-18T06:28:28.733Z,101381.53
2022-12-18T06:30:58.029Z,101371.28
2022-12-18T06:33:33.056Z,101369.59
2022-12-18T06:36:04.677Z,101361.03
2022-12-18T06:38:35.029Z,101366.16
2022-12-18T06:41:10.503Z,101357.41
2022-12-18T06:43:40.933Z,101354.09
2022-12-18T06:46:13.678Z,101347.91
2022-12-18T06:48:44.518Z,101337.78
2022-12-18T06:51:19.511Z,101338.72
2022-12-18T06:53:48.443Z,101337.94
2022-12-18T06:56:21.003Z,101332.09
2022-12-18T06:58:53.952Z,101327.88
2022-12-18T07:01:24.590Z,101332.38
2022-12-18T07:03:55.868Z,101321.38
2022-12-18T07:06:28.404Z,101317.28
2022-12-18T07:08:58.042Z,101312.34
2022-12-18T07:11:28.522Z,101309.16
2022-12-18T07:14:05.144Z,101305.06
2022-12-18T07:16:36.008Z,101312.00
2022-12-18T07:19:05.090Z,101310.50
2022-12-18T07:21:35.883Z,101314.88
2022-12-18T07:24:06.186Z,101325.41
2022-12-18T07:26:36.187Z,101323.91
2022-12-18T07:29:05.555Z,101324.97
2022-12-18T07:31:35.602Z,101326.94
2022-12-18T07:34:11.946Z,101311.69
2022-12-18T07:36:44.054Z,101313.06
2022-12-18T07:39:14.262Z,101305.34
2022-12-18T07:42:07.108Z,101288.44
2022-12-18T07:44:37.095Z,101300.81
2022-12-18T07:47:12.138Z,101311.06
2022-12-18T07:49:42.640Z,101307.75
2022-12-18T07:52:14.414Z,101301.84
2022-12-18T07:54:51.237Z,101304.59
2022-12-18T07:57:48.813Z,101310.59
2022-12-18T08:00:14.009Z,101309.09
2022-12-18T08:02:43.774Z,101307.56
2022-12-18T08:05:15.550Z,101309.38
2022-12-18T08:07:49.273Z,101305.31
2022-12-18T08:10:19.934Z,101290.81
2022-12-18T08:12:52.209Z,101297.00
2022-12-18T08:15:21.322Z,101289.44
2022-12-18T08:17:50.543Z,101278.56
2022-12-18T08:20:20.299Z,101269.19
2022-12-18T08:22:54.775Z,101274.66
2022-12-18T08:25:27.518Z,101270.56
2022-12-18T08:27:58.000Z,101264.06
2022-12-18T08:30:27.289Z,101248.81
2022-12-18T08:32:57.202Z,101254.22
2022-12-18T08:35:29.548Z,101248.59
2022-12-18T08:38:22.257Z,101234.56
2022-12-18T08:40:52.406Z,101223.81
2022-12-18T08:43:38.879Z,101232.84
2022-12-18T08:46:09.596Z,101238.25
2022-12-18T08:48:39.789Z,101254.09
2022-12-18T08:51:10.777Z,101247.59
2022-12-18T08:53:42.117Z,101259.91
2022-12-18T08:56:11.854Z,101254.47
2022-12-18T08:58:42.039Z,101257.44
2022-12-18T09:01:13.676Z,101262.88
2022-12-18T09:03:44.509Z,101265.09
2022-12-18T09:06:20.221Z,101256.00
2022-12-18T09:08:52.371Z,101247.06
2022-12-18T09:11:23.953Z,101245.81
2022-12-18T09:13:55.481Z,101234.31
2022-12-18T09:16:31.981Z,101231.25
2022-12-18T09:19:03.034Z,101233.34
2022-12-18T09:21:36.833Z,101219.97
2022-12-18T09:24:09.266Z,101229.03
2022-12-18T09:26:38.697Z,101229.31
2022-12-18T09:29:10.312Z,101223.81
2022-12-18T09:31:42.104Z,101218.19
2022-12-18T09:34:12.081Z,101213.44
2022-12-18T09:36:41.691Z,101214.00
2022-12-18T09:39:12.082Z,101218.78
2022-12-18T09:41:48.023Z,101225.22
2022-12-18T09:44:25.265Z,101231.03
2022-12-18T09:47:13.351Z,101221.31
2022-12-18T09:49:45.791Z,101221.84
2022-12-18T09:52:21.948Z,101215.44
2022-12-18T09:57:58.771Z,101215.59
2022-12-18T10:00:31.035Z,101196.19
2022-12-18T10:03:03.987Z,101187.22
2022-12-18T10:05:43.512Z,101198.81
2022-12-18T10:08:19.531Z,101189.66
2022-12-18T10:11:00.110Z,101188.25
2022-12-18T10:13:36.391Z,101192.09
2022-12-18T10:16:18.539Z,101183.88
2022-12-18T10:19:08.139Z,101187.75
2022-12-18T10:21:46.170Z,101188.78
2022-12-18T10:24:26.322Z,101184.94
2022-12-18T10:27:04.765Z,101185.34
2022-12-18T10:29:34.505Z,101175.28
2022-12-18T10:32:06.764Z,101165.38
2022-12-18T10:34:37.876Z,101161.50
2022-12-18T10:37:17.643Z,101162.66
2022-12-18T10:39:47.362Z,101159.59
2022-12-18T10:42:25.969Z,101165.13
2022-12-18T10:45:04.367Z,101157.88
2022-12-18T10:47:36.115Z,101168.47
2022-12-18T10:50:06.832Z,101152.47
2022-12-18T10:52:43.625Z,101153.75
2022-12-18T10:55:20.339Z,101149.78
2022-12-18T10:57:54.965Z,101145.75
2022-12-18T11:00:29.545Z,101134.94
2022-12-18T11:03:00.414Z,101127.44
2022-12-18T11:05:32.870Z,101119.22
2022-12-18T11:08:05.679Z,101115.19
2022-12-18T11:10:37.900Z,101111.97
2022-12-18T11:13:20.635Z,101118.28
2022-12-18T11:15:51.107Z,101112.47
2022-12-18T11:18:27.524Z,101121.19
2022-12-18T11:21:00.415Z,101126.63
2022-12-18T11:23:30.712Z,101122.47
2022-12-18T11:26:03.967Z,101118.47
2022-12-18T11:28:44.654Z,101125.81
2022-12-18T11:31:26.780Z,101115.72
2022-12-18T11:37:05.825Z,101084.50
2022-12-18T11:39:40.408Z,101074.44
2022-12-18T11:42:18.776Z,101058.97
2022-12-18T11:45:00.504Z,101059.06
2022-12-18T11:47:39.775Z,101064.38
2022-12-18T11:50:18.127Z,101065.41
2022-12-18T11:52:51.503Z,101064.59
2022-12-18T11:55:37.816Z,101067.31
2022-12-18T11:58:18.411Z,101042.41
2022-12-18T12:00:58.936Z,101056.34
2022-12-18T12:03:49.546Z,101052.81
2022-12-18T12:06:26.493Z,101065.84
2022-12-18T12:09:07.607Z,101059.00
2022-12-18T12:11:50.387Z,101065.06
2022-12-18T12:14:45.267Z,101072.03
2022-12-18T12:17:24.320Z,101070.50
2022-12-18T12:20:05.434Z,101060.94
2022-12-18T12:22:46.879Z,101071.38
2022-12-18T12:25:30.140Z,101062.84
2022-12-18T12:28:12.258Z,101057.69
2022-12-18T12:30:59.415Z,101046.47
2022-12-18T12:33:44.450Z,101034.47
2022-12-18T12:36:27.775Z,101036.94
2022-12-18T12:39:03.639Z,101041.84
2022-12-18T12:41:53.422Z,101043.44
2022-12-18T12:44:29.679Z,101039.84
2022-12-18T12:47:14.857Z,101036.34
2022-12-18T12:49:51.609Z,101034.66
2022-12-18T12:52:33.693Z,101032.84
2022-12-18T12:55:14.899Z,101028.50
2022-12-18T12:57:51.976Z,101027.47
2022-12-18T13:00:23.434Z,101039.34
2022-12-18T13:02:59.472Z,101050.44
2022-12-18T13:05:40.758Z,101046.06
2022-12-18T13:08:13.376Z,101048.53
2022-12-18T13:10:47.037Z,101055.09
2022-12-18T13:13:23.571Z,101046.38
2022-12-18T13:16:12.217Z,101049.72
2022-12-18T13:18:53.064Z,101042.63
2022-12-18T13:21:30.016Z,101038.13
2022-12-18T13:24:17.856Z,101041.59
2022-12-18T13:26:46.999Z,101039.81
2022-12-18T13:29:43.530Z,101033.78
2022-12-18T13:32:26.411Z,101018.06
2022-12-18T13:35:33.258Z,101011.09
2022-12-18T13:38:05.196Z,101000.78
2022-12-18T13:40:57.775Z,100998.09
2022-12-18T13:43:44.066Z,100992.81
2022-12-18T13:46:26.945Z,100987.66
2022-12-18T13:49:05.995Z,100994.50
2022-12-18T13:51:38.317Z,100981.47
2022-12-18T13:54:28.655Z,100969.38
2022-12-18T13:56:58.146Z,100970.13
2022-12-18T13:59:30.084Z,100966.53
2022-12-18T14:02:05.757Z,100979.44
2022-12-18T14:04:38.190Z,100971.59
2022-12-18T14:07:09.958Z,100965.53
2022-12-18T14:09:47.186Z,100960.38
2022-12-18T14:12:41.148Z,100959.22
2022-12-18T14:15:34.287Z,100950.75
2022-12-18T14:18:18.138Z,100951.63
2022-12-18T14:20:53.325Z,100946.25
2022-12-18T14:23:32.798Z,100940.16
2022-12-18T14:26:06.241Z,100930.50
2022-12-18T14:28:35.778Z,100939.03
2022-12-18T14:31:05.294Z,100938.00
2022-12-18T14:33:34.650Z,100918.06
2022-12-18T14:36:06.443Z,100932.72
2022-12-18T14:38:38.276Z,100938.69
2022-12-18T14:41:13.439Z,100939.47
2022-12-18T14:43:44.535Z,100930.06
2022-12-18T14:46:36.871Z,100926.44
2022-12-18T14:49:23.345Z,100921.16
2022-12-18T14:51:56.884Z,100912.53
2022-12-18T14:54:28.316Z,100914.22
2022-12-18T14:57:05.798Z,100906.50
2022-12-18T14:59:39.236Z,100906.38
2022-12-18T15:02:20.026Z,100902.00
2022-12-18T15:04:49.334Z,100889.91
2022-12-18T15:07:22.764Z,100892.47
2022-12-18T15:10:06.576Z,100896.84
2022-12-18T15:12:39.680Z,100890.81
2022-12-18T15:15:42.387Z,100897.63
2022-12-18T15:18:16.311Z,100891.47
2022-12-18T15:20:49.489Z,100888.88
2022-12-18T15:23:24.517Z,100893.00
2022-12-18T15:26:01.705Z,100893.00
2022-12-18T15:28:38.953Z,100887.84
2022-12-18T15:31:27.273Z,100881.03
2022-12-18T15:34:12.081Z,100883.50
2022-12-18T15:36:41.708Z,100883.50
2022-12-18T15:39:14.174Z,100883.38
2022-12-18T15:42:05.942Z,100892.78
2022-12-18T15:44:35.401Z,100887.38
2022-12-18T15:47:04.587Z,100892.41
2022-12-18T15:49:34.807Z,100899.25
2022-12-18T15:52:05.284Z,100887.94
2022-12-18T15:54:54.882Z,100882.63
2022-12-18T15:57:27.787Z,100879.97
2022-12-18T15:59:59.464Z,100876.38
2022-12-18T16:02:30.345Z,100877.91
2022-12-18T16:04:59.393Z,100886.44
2022-12-18T16:07:30.753Z,100878.56
2022-12-18T16:10:01.256Z,100871.50
2022-12-18T16:12:32.129Z,100878.34
2022-12-18T16:15:03.509Z,100865.31
2022-12-18T16:17:32.908Z,100871.13
2022-12-18T16:20:02.617Z,100877.97
2022-12-18T16:22:33.543Z,100881.31
2022-12-18T16:25:04.194Z,100885.47
2022-12-18T16:27:33.697Z,100892.41
2022-12-18T16:30:04.619Z,100907.84
2022-12-18T16:32:34.454Z,100898.19
2022-12-18T16:35:03.833Z,100901.56
2022-12-18T16:37:34.175Z,100898.06
2022-12-18T16:40:03.667Z,100897.06
2022-12-18T16:42:32.856Z,100897.06
2022-12-18T16:45:03.823Z,100894.50
2022-12-18T16:47:33.027Z,100893.47
2022-12-18T16:50:02.888Z,100896.81
2022-12-18T16:52:32.477Z,100890.66
2022-12-18T16:55:02.357Z,100888.09
2022-12-18T16:57:32.284Z,100887.94
2022-12-18T17:00:05.927Z,100882.00
2022-12-18T17:02:35.995Z,100887.81
2022-12-18T17:05:06.264Z,100871.34
2022-12-18T17:07:35.648Z,100871.34
2022-12-18T17:10:07.924Z,100884.13
2022-12-18T17:12:37.490Z,100885.78
2022-12-18T17:15:11.128Z,100870.34
2022-12-18T17:17:39.973Z,100875.50
2022-12-18T17:20:10.443Z,100872.78
2022-12-18T17:22:39.217Z,100874.47
2022-12-18T17:25:09.036Z,100871.00
2022-12-18T17:27:38.621Z,100858.00
2022-12-18T17:30:11.652Z,100868.28
2022-12-18T17:32:41.464Z,100878.59
2022-12-18T17:35:10.868Z,100871.66
2022-12-18T17:37:40.142Z,100862.13
2022-12-18T17:40:11.071Z,100863.81
2022-12-18T17:42:40.545Z,100861.88
2022-12-18T17:45:12.448Z,100847.97
2022-12-18T17:47:42.155Z,100853.03
2022-12-18T17:50:11.473Z,100855.47
2022-12-18T17:52:40.746Z,100876.06
2022-12-18T17:55:10.884Z,100869.13
2022-12-18T17:57:40.397Z,100875.94
2022-12-18T18:00:12.664Z,100873.25
2022-12-18T18:02:44.310Z,100890.34
2022-12-18T18:05:14.595Z,100882.50
2022-12-18T18:07:49.132Z,100891.00
2022-12-18T18:10:19.512Z,100893.56
2022-12-18T18:13:06.952Z,100882.28
2022-12-18T18:15:39.637Z,100885.59
2022-12-18T18:18:08.591Z,100882.94
2022-12-18T18:20:44.045Z,100876.09
2022-12-18T18:23:13.036Z,100887.94
2022-12-18T18:25:42.371Z,100894.75
2022-12-18T18:28:12.058Z,100900.81
2022-12-18T18:30:43.125Z,100888.72
2022-12-18T18:33:12.885Z,100902.34
2022-12-18T18:35:59.360Z,100912.63
2022-12-18T18:38:29.293Z,100916.09
2022-12-18T18:41:03.773Z,100910.84
2022-12-18T18:43:35.208Z,100902.25
2022-12-18T18:46:14.006Z,100904.81
2022-12-18T18:48:43.996Z,100909.03
2022-12-18T18:51:21.074Z,100914.19
2022-12-18T18:53:53.231Z,100914.97
2022-12-18T18:56:56.333Z,100907.91
2022-12-18T18:59:19.771Z,100911.38
2022-12-18T19:01:55.723Z,100907.00
2022-12-18T19:04:29.008Z,100900.97
2022-12-18T19:06:58.641Z,100895.19
2022-12-18T19:09:30.113Z,100888.22
2022-12-18T19:12:18.931Z,100893.34
2022-12-18T19:14:50.976Z,100888.22
2022-12-18T19:17:29.428Z,100896.97
2022-12-18T19:19:59.480Z,100884.97
2022-12-18T19:22:36.839Z,100888.44
2022-12-18T19:25:06.762Z,100899.66
2022-12-18T19:27:39.129Z,100886.91
2022-12-18T19:30:10.206Z,100888.72
2022-12-18T19:32:47.284Z,100872.50
2022-12-18T19:35:16.970Z,100889.72
2022-12-18T19:37:46.591Z,100872.63
2022-12-18T19:40:19.260Z,100880.34
2022-12-18T19:42:52.250Z,100880.47
2022-12-18T19:45:23.123Z,100875.31
2022-12-18T19:47:54.954Z,100878.91
2022-12-18T19:50:30.299Z,100880.69
2022-12-18T19:53:02.768Z,100870.53
2022-12-18T19:55:34.232Z,100868.84
2022-12-18T19:58:03.951Z,100858.56
2022-12-18T20:00:43.108Z,100855.22
2022-12-18T20:03:23.493Z,100869.88
2022-12-18T20:05:56.511Z,100874.28
2022-12-18T20:08:27.509Z,100867.53
2022-12-18T20:10:57.083Z,100874.50
2022-12-18T20:13:29.766Z,100879.66
2022-12-18T20:15:59.571Z,100886.59
2022-12-18T20:18:30.570Z,100882.34
2022-12-18T20:21:02.033Z,100877.47
2022-12-18T20:23:36.013Z,100862.91
2022-12-18T20:26:06.270Z,100873.22
2022-12-18T20:28:40.359Z,100875.00
2022-12-18T20:31:13.373Z,100871.66
2022-12-18T20:33:48.740Z,100860.56
2022-12-18T20:36:25.951Z,100870.06
2022-12-18T20:39:00.417Z,100865.84
2022-12-18T20:41:36.426Z,100874.47
2022-12-18T20:44:21.955Z,100870.22
2022-12-18T20:46:57.766Z,100868.53
2022-12-18T20:49:29.254Z,100860.81
2022-12-18T20:51:58.874Z,100866.84
2022-12-18T20:54:28.947Z,100865.97
2022-12-18T20:56:58.314Z,100863.38
2022-12-18T20:59:27.796Z,100869.31
2022-12-18T21:01:57.353Z,100863.38
2022-12-18T21:04:27.303Z,100877.16
2022-12-18T21:07:02.590Z,100869.41
2022-12-18T21:09:38.420Z,100873.81
2022-12-18T21:12:30.285Z,100870.34
2022-12-18T21:15:08.170Z,100877.28
2022-12-18T21:17:44.066Z,100872.13
2022-12-18T21:20:17.982Z,100869.56
2022-12-18T21:22:49.917Z,100867.13
2022-12-18T21:25:19.090Z,100867.22
2022-12-18T21:27:48.473Z,100859.50
2022-12-18T21:30:17.507Z,100863.88
2022-12-18T21:32:47.271Z,100862.34
2022-12-18T21:35:18.144Z,100861.53
2022-12-18T21:37:50.560Z,100863.31
2022-12-18T21:40:21.383Z,100865.91
2022-12-18T21:43:07.529Z,100859.22
2022-12-18T21:45:39.935Z,100862.66
2022-12-18T21:48:11.288Z,100858.56
2022-12-18T21:50:41.150Z,100857.00
2022-12-18T21:53:16.664Z,100844.00
2022-12-18T21:55:45.942Z,100857.88
2022-12-18T21:58:15.758Z,100840.66
2022-12-18T22:00:48.683Z,100842.44
2022-12-18T22:03:20.471Z,100835.59
2022-12-18T22:05:51.980Z,100828.81
2022-12-18T22:08:43.774Z,100825.44
2022-12-18T22:11:15.904Z,100818.50
2022-12-18T22:13:48.295Z,100826.34
2022-12-18T22:16:18.505Z,100810.88
2022-12-18T22:18:48.842Z,100810.88
2022-12-18T22:21:29.240Z,100804.03
2022-12-18T22:24:01.567Z,100804.03
2022-12-18T22:26:37.878Z,100809.19
2022-12-18T22:29:27.008Z,100813.59
2022-12-18T22:31:56.549Z,100793.00
2022-12-18T22:34:26.326Z,100798.13
2022-12-18T22:36:55.912Z,100796.44
2022-12-18T22:39:30.661Z,100779.22
2022-12-18T22:42:00.910Z,100780.22
2022-12-18T22:44:31.689Z,100786.28
2022-12-18T22:47:06.279Z,100782.91
2022-12-18T22:49:38.823Z,100771.84
2022-12-18T22:52:10.021Z,100771.06
2022-12-18T22:54:41.000Z,100768.47
2022-12-18T22:57:11.075Z,100778.00
2022-12-18T22:59:41.341Z,100776.44
2022-12-18T23:02:10.751Z,100766.94
2022-12-18T23:04:39.929Z,100763.69
2022-12-18T23:07:09.063Z,100745.75
2022-12-18T23:09:42.148Z,100750.03
2022-12-18T23:12:19.645Z,100742.41
2022-12-18T23:14:48.451Z,100737.38
2022-12-18T23:17:18.710Z,100734.13
2022-12-18T23:19:49.505Z,100721.25
2022-12-18T23:22:19.860Z,100723.06
2022-12-18T23:24:50.079Z,100723.16
2022-12-18T23:27:18.472Z,100725.84
2022-12-18T23:29:47.346Z,100720.72
2022-12-18T23:32:17.766Z,100719.16
2022-12-18T23:34:48.339Z,100709.72
2022-12-18T23:37:49.945Z,100705.47
2022-12-18T23:40:12.699Z,100708.19
2022-12-18T23:42:41.298Z,100703.91
2022-12-18T23:45:16.563Z,100702.34
2022-12-18T23:47:51.141Z,100701.47
2022-12-18T23:50:24.056Z,100705.94
2022-12-18T23:53:05.090Z,100690.50
2022-12-18T23:55:40.918Z,100693.16
2022-12-18T23:58:17.918Z,100682.84
